Alpine Moment — VREV7 — position and weather

sailwx.info

Track history (hours):
 
Tides and Currents Weather Stations Pressure Air Temp Water Temp Dewpoint Dewpoint Depression Visibility Wind Speed Wind Dir Waves Ship Positions

Alpine Moment

Last reported at 2017-Oct-08 01:28 UTC. Time now 2017-Oct-18 22:27 UTC.
Position N 29°29' W 094°52'.
Warning: this ship's position is 10 days out of date.

Length 183 m; draft 11.8 m.

Type: Tanker. MMSI: 477185800.

Date/timePositionNaut miles runAvg speedWind from/ knotsBaromVisibWave heightAir tempDewpointWater temp
2017-Oct-08 01:28N 29°29' W 094°52'510.4
2017-Oct-08 01:01N 29°33' W 094°55'510.3
2017-Oct-08 00:31N 29°38' W 094°58'5 9.4
2017-Oct-08 00:01N 29°42' W 094°60'3 6.1
2017-Oct-07 23:29N 29°44' W 095°03'1 0.1
2017-Oct-07 13:30N 29°44' W 095°03'0 0.6
2017-Oct-07 13:00N 29°44' W 095°03'3 5.6
2017-Oct-07 12:31N 29°42' W 095°00'5 9.5
2017-Oct-07 12:01N 29°38' W 094°58'611.3
2017-Oct-07 11:31N 29°33' W 094°55'611.9
2017-Oct-07 11:01N 29°28' W 094°51'  
2017-Oct-02 10:56N 29°29' W 094°52'4 9.7
2017-Oct-02 10:30N 29°33' W 094°54'510.4
2017-Oct-02 10:01N 29°37' W 094°57'5 9.3
2017-Oct-02 09:30N 29°41' W 094°59'3 6.5
2017-Oct-02 09:01N 29°44' W 095°02'3 6.0
2017-Oct-02 08:30N 29°46' W 095°04'3 4.8
2017-Oct-02 07:59N 29°44' W 095°07'2 4.7
2017-Oct-02 07:28N 29°45' W 095°10'2 3.8
2017-Oct-02 06:57N 29°44' W 095°12'0 0.1
2017-Oct-02 06:30N 29°45' W 095°12'0 0.0
2017-Oct-02 05:54N 29°45' W 095°12'0 0.0
2017-Oct-02 05:29N 29°45' W 095°12'0 0.0
2017-Oct-02 04:59N 29°45' W 095°12'0 0.0
2017-Oct-02 04:29N 29°45' W 095°12'0 0.0
2017-Oct-02 03:50N 29°45' W 095°12'0 0.0
2017-Oct-02 03:05N 29°45' W 095°12'0 0.1
2017-Oct-02 02:59N 29°45' W 095°12'0 0.0
2017-Oct-02 02:29N 29°45' W 095°12'0 0.0
2017-Oct-02 00:44N 29°45' W 095°12'0 0.0
2017-Oct-02 00:17N 29°45' W 095°12'0 0.0
2017-Oct-01 23:14N 29°45' W 095°12'0 0.0
2017-Oct-01 22:56N 29°45' W 095°12'0 0.0
2017-Oct-01 22:29N 29°45' W 095°12'0 0.0
2017-Oct-01 19:47N 29°45' W 095°12'0 0.0
2017-Oct-01 19:17N 29°45' W 095°12'0 0.0
2017-Oct-01 18:50N 29°45' W 095°12'0 0.0
2017-Oct-01 17:47N 29°45' W 095°12'0 0.0
2017-Oct-01 17:05N 29°45' W 095°12'0 0.0
2017-Oct-01 16:53N 29°45' W 095°12'0 0.0
2017-Oct-01 15:53N 29°45' W 095°12'0 0.0
2017-Oct-01 15:29N 29°45' W 095°12'0 0.0
2017-Oct-01 14:53N 29°45' W 095°12'0 0.0
2017-Oct-01 14:29N 29°45' W 095°12'0 0.0
2017-Oct-01 13:53N 29°45' W 095°12'0 0.0
2017-Oct-01 13:20N 29°45' W 095°12'0 0.0
2017-Oct-01 12:47N 29°45' W 095°12'0 0.0
2017-Oct-01 12:08N 29°45' W 095°12'0 0.0
2017-Oct-01 11:56N 29°45' W 095°12'0 0.0
2017-Oct-01 11:26N 29°45' W 095°12'0 0.0
2017-Oct-01 10:59N 29°45' W 095°12'0 0.0
2017-Oct-01 10:29N 29°45' W 095°12'0 0.0
2017-Oct-01 09:59N 29°45' W 095°12'0 0.0
2017-Oct-01 09:23N 29°45' W 095°12'0 0.0
2017-Oct-01 08:56N 29°45' W 095°12'0 0.0
2017-Oct-01 08:26N 29°45' W 095°12'0 0.0
2017-Oct-01 07:59N 29°45' W 095°12'0 0.0
2017-Oct-01 07:29N 29°45' W 095°12'0 0.0
2017-Oct-01 06:59N 29°45' W 095°12'0 0.0
2017-Oct-01 06:29N 29°45' W 095°12'0 0.0
2017-Oct-01 05:59N 29°45' W 095°12'0 0.0
2017-Oct-01 05:20N 29°45' W 095°12'0 0.0
2017-Oct-01 04:56N 29°45' W 095°12'0 0.0
2017-Oct-01 04:29N 29°45' W 095°12'0 0.0
2017-Oct-01 03:59N 29°45' W 095°12'0 0.0
2017-Oct-01 03:29N 29°45' W 095°12'0 0.0
2017-Oct-01 02:59N 29°45' W 095°12'  
Track history (hours):
 
Tides and Currents Weather Stations Pressure Air Temp Water Temp Dewpoint Dewpoint Depression Visibility Wind Speed Wind Dir Waves Ship Positions

Alpine Moment

Last reported at 2017-Oct-08 01:28 UTC. Time now 2017-Oct-18 22:27 UTC.
Position N 29°29' W 094°52'.
Warning: this ship's position is 10 days out of date.

Length 183 m; draft 11.8 m.

Type: Tanker. MMSI: 477185800.

Date/timePositionNaut miles runAvg speedWind from/ knotsBaromVisibWave heightAir tempDewpointWater temp
2017-Oct-08 01:28N 29°29' W 094°52'510.4
2017-Oct-08 01:01N 29°33' W 094°55'510.3
2017-Oct-08 00:31N 29°38' W 094°58'5 9.4
2017-Oct-08 00:01N 29°42' W 094°60'3 6.1
2017-Oct-07 23:29N 29°44' W 095°03'1 0.1
2017-Oct-07 13:30N 29°44' W 095°03'0 0.6
2017-Oct-07 13:00N 29°44' W 095°03'3 5.6
2017-Oct-07 12:31N 29°42' W 095°00'5 9.5
2017-Oct-07 12:01N 29°38' W 094°58'611.3
2017-Oct-07 11:31N 29°33' W 094°55'611.9
2017-Oct-07 11:01N 29°28' W 094°51'  
2017-Oct-02 10:56N 29°29' W 094°52'4 9.7
2017-Oct-02 10:30N 29°33' W 094°54'510.4
2017-Oct-02 10:01N 29°37' W 094°57'5 9.3
2017-Oct-02 09:30N 29°41' W 094°59'3 6.5
2017-Oct-02 09:01N 29°44' W 095°02'3 6.0
2017-Oct-02 08:30N 29°46' W 095°04'3 4.8
2017-Oct-02 07:59N 29°44' W 095°07'2 4.7
2017-Oct-02 07:28N 29°45' W 095°10'2 3.8
2017-Oct-02 06:57N 29°44' W 095°12'0 0.1
2017-Oct-02 06:30N 29°45' W 095°12'0 0.0
2017-Oct-02 05:54N 29°45' W 095°12'0 0.0
2017-Oct-02 05:29N 29°45' W 095°12'0 0.0
2017-Oct-02 04:59N 29°45' W 095°12'0 0.0
2017-Oct-02 04:29N 29°45' W 095°12'0 0.0
2017-Oct-02 03:50N 29°45' W 095°12'0 0.0
2017-Oct-02 03:05N 29°45' W 095°12'0 0.1
2017-Oct-02 02:59N 29°45' W 095°12'0 0.0
2017-Oct-02 02:29N 29°45' W 095°12'0 0.0
2017-Oct-02 00:44N 29°45' W 095°12'0 0.0
2017-Oct-02 00:17N 29°45' W 095°12'0 0.0
2017-Oct-01 23:14N 29°45' W 095°12'0 0.0
2017-Oct-01 22:56N 29°45' W 095°12'0 0.0
2017-Oct-01 22:29N 29°45' W 095°12'0 0.0
2017-Oct-01 19:47N 29°45' W 095°12'0 0.0
2017-Oct-01 19:17N 29°45' W 095°12'0 0.0
2017-Oct-01 18:50N 29°45' W 095°12'0 0.0
2017-Oct-01 17:47N 29°45' W 095°12'0 0.0
2017-Oct-01 17:05N 29°45' W 095°12'0 0.0
2017-Oct-01 16:53N 29°45' W 095°12'0 0.0
2017-Oct-01 15:53N 29°45' W 095°12'0 0.0
2017-Oct-01 15:29N 29°45' W 095°12'0 0.0
2017-Oct-01 14:53N 29°45' W 095°12'0 0.0
2017-Oct-01 14:29N 29°45' W 095°12'0 0.0
2017-Oct-01 13:53N 29°45' W 095°12'0 0.0
2017-Oct-01 13:20N 29°45' W 095°12'0 0.0
2017-Oct-01 12:47N 29°45' W 095°12'0 0.0
2017-Oct-01 12:08N 29°45' W 095°12'0 0.0
2017-Oct-01 11:56N 29°45' W 095°12'0 0.0
2017-Oct-01 11:26N 29°45' W 095°12'0 0.0
2017-Oct-01 10:59N 29°45' W 095°12'0 0.0
2017-Oct-01 10:29N 29°45' W 095°12'0 0.0
2017-Oct-01 09:59N 29°45' W 095°12'0 0.0
2017-Oct-01 09:23N 29°45' W 095°12'0 0.0
2017-Oct-01 08:56N 29°45' W 095°12'0 0.0
2017-Oct-01 08:26N 29°45' W 095°12'0 0.0
2017-Oct-01 07:59N 29°45' W 095°12'0 0.0
2017-Oct-01 07:29N 29°45' W 095°12'0 0.0
2017-Oct-01 06:59N 29°45' W 095°12'0 0.0
2017-Oct-01 06:29N 29°45' W 095°12'0 0.0
2017-Oct-01 05:59N 29°45' W 095°12'0 0.0
2017-Oct-01 05:20N 29°45' W 095°12'0 0.0
2017-Oct-01 04:56N 29°45' W 095°12'0 0.0
2017-Oct-01 04:29N 29°45' W 095°12'0 0.0
2017-Oct-01 03:59N 29°45' W 095°12'0 0.0
2017-Oct-01 03:29N 29°45' W 095°12'0 0.0
2017-Oct-01 02:59N 29°45' W 095°12'  

Dump ship's entire track history